createdAt,value
2023-01-17T00:00:12.764Z,4.06
2023-01-17T00:01:12.678Z,4.08
2023-01-17T00:02:12.697Z,3.96
2023-01-17T00:03:12.692Z,3.98
2023-01-17T00:04:12.732Z,4.06
2023-01-17T00:05:12.670Z,3.98
2023-01-17T00:06:12.677Z,3.98
2023-01-17T00:07:12.659Z,4.01
2023-01-17T00:08:12.652Z,3.97
2023-01-17T00:09:12.639Z,4.04
2023-01-17T00:10:12.644Z,4.07
2023-01-17T00:11:12.644Z,3.98
2023-01-17T00:12:12.608Z,3.98
2023-01-17T00:13:12.619Z,4.01
2023-01-17T00:14:12.600Z,4.04
2023-01-17T00:15:12.600Z,4.01
2023-01-17T00:16:12.617Z,4.00
2023-01-17T00:17:12.597Z,3.96
2023-01-17T00:18:12.572Z,3.98
2023-01-17T00:19:12.571Z,4.00
2023-01-17T00:20:12.565Z,3.96
2023-01-17T00:21:12.551Z,4.04
2023-01-17T00:22:12.567Z,3.97
2023-01-17T00:23:12.560Z,4.04
2023-01-17T00:24:12.535Z,3.97
2023-01-17T00:25:12.526Z,3.89
2023-01-17T00:26:12.523Z,3.97
2023-01-17T00:27:12.537Z,4.00
2023-01-17T00:28:12.527Z,3.94
2023-01-17T00:29:12.488Z,3.90
2023-01-17T00:30:12.506Z,3.90
2023-01-17T00:31:12.553Z,3.83
2023-01-17T00:32:12.497Z,3.92
2023-01-17T00:33:12.482Z,3.92
2023-01-17T00:34:12.468Z,3.90
2023-01-17T00:35:12.561Z,3.83
2023-01-17T00:36:12.470Z,3.89
2023-01-17T00:37:12.452Z,3.85
2023-01-17T00:38:12.466Z,3.75
2023-01-17T00:39:12.435Z,3.83
2023-01-17T00:40:12.437Z,3.85
2023-01-17T00:41:12.430Z,3.83
2023-01-17T00:42:12.414Z,3.79
2023-01-17T00:43:12.419Z,3.83
2023-01-17T00:44:12.410Z,3.83
2023-01-17T00:45:12.405Z,3.83
2023-01-17T00:46:12.472Z,3.79
2023-01-17T00:47:12.385Z,3.80
2023-01-17T00:48:12.388Z,3.90
2023-01-17T00:49:12.380Z,3.82
2023-01-17T00:50:12.366Z,3.94
2023-01-17T00:51:12.366Z,3.82
2023-01-17T00:52:12.356Z,3.85
2023-01-17T00:53:12.352Z,3.90
2023-01-17T00:54:12.412Z,3.90
2023-01-17T00:55:12.346Z,3.89
2023-01-17T00:56:12.335Z,3.78
2023-01-17T00:57:12.336Z,3.85
2023-01-17T00:58:12.374Z,3.79
2023-01-17T00:59:12.309Z,3.89
2023-01-17T01:00:12.307Z,3.85
2023-01-17T01:01:12.321Z,3.94
2023-01-17T01:02:12.397Z,3.85
2023-01-17T01:03:12.286Z,3.86
2023-01-17T01:04:12.286Z,3.90
2023-01-17T01:05:12.259Z,3.85
2023-01-17T01:06:12.258Z,3.89
2023-01-17T01:07:13.255Z,3.92
2023-01-17T01:08:12.253Z,3.94
2023-01-17T01:09:12.268Z,3.88
2023-01-17T01:10:12.236Z,4.01
2023-01-17T01:11:12.234Z,3.97
2023-01-17T01:12:12.225Z,4.12
2023-01-17T01:13:12.222Z,3.98
2023-01-17T01:14:12.209Z,4.04
2023-01-17T01:15:12.208Z,4.03
2023-01-17T01:16:12.232Z,4.04
2023-01-17T01:17:12.211Z,4.01
2023-01-17T01:18:12.192Z,4.04
2023-01-17T01:19:12.182Z,4.06
2023-01-17T01:20:12.173Z,3.98
2023-01-17T01:21:12.167Z,4.01
2023-01-17T01:22:12.180Z,4.04
2023-01-17T01:23:12.148Z,4.06
2023-01-17T01:24:12.138Z,4.07
2023-01-17T01:25:12.134Z,4.08
2023-01-17T01:26:12.136Z,4.06
2023-01-17T01:27:12.143Z,4.06
2023-01-17T01:28:12.148Z,4.15
2023-01-17T01:29:12.107Z,4.04
2023-01-17T01:30:12.102Z,4.16
2023-01-17T01:31:12.163Z,4.10
2023-01-17T01:32:12.133Z,4.21
2023-01-17T01:33:12.088Z,4.21
2023-01-17T01:34:12.082Z,4.12
2023-01-17T01:35:12.063Z,4.15
2023-01-17T01:36:12.061Z,4.18
2023-01-17T01:37:12.061Z,4.25
2023-01-17T01:38:12.052Z,4.08
2023-01-17T01:39:12.042Z,4.14
2023-01-17T01:40:12.072Z,4.22
2023-01-17T01:41:12.055Z,4.15
2023-01-17T01:42:12.017Z,4.15
2023-01-17T01:43:12.028Z,4.16
2023-01-17T01:44:12.013Z,4.06
2023-01-17T01:45:12.030Z,4.10
2023-01-17T01:46:12.001Z,4.12
2023-01-17T01:47:11.996Z,4.16
2023-01-17T01:48:11.989Z,4.19
2023-01-17T01:49:11.981Z,4.10
2023-01-17T01:50:11.991Z,4.08
2023-01-17T01:51:11.990Z,4.04
2023-01-17T01:52:11.994Z,4.04
2023-01-17T01:53:11.960Z,4.12
2023-01-17T01:54:11.942Z,4.07
2023-01-17T01:55:11.948Z,4.01
2023-01-17T01:56:11.943Z,4.04
2023-01-17T01:57:11.923Z,3.97
2023-01-17T01:58:11.920Z,4.03
2023-01-17T01:59:11.906Z,3.98
2023-01-17T02:00:11.931Z,3.94
2023-01-17T02:01:12.006Z,4.03
2023-01-17T02:02:11.905Z,4.07
2023-01-17T02:03:11.885Z,3.97
2023-01-17T02:04:11.943Z,4.00
2023-01-17T02:05:11.869Z,4.03
2023-01-17T02:06:11.884Z,4.04
2023-01-17T02:07:11.869Z,3.92
2023-01-17T02:08:11.854Z,3.96
2023-01-17T02:09:11.852Z,3.94
2023-01-17T02:10:11.856Z,3.94
2023-01-17T02:11:11.863Z,3.96
2023-01-17T02:12:11.837Z,3.92
2023-01-17T02:13:11.842Z,3.92
2023-01-17T02:14:11.817Z,3.86
2023-01-17T02:15:11.804Z,3.89
2023-01-17T02:16:11.809Z,3.86
2023-01-17T02:17:11.815Z,3.88
2023-01-17T02:18:11.793Z,3.89
2023-01-17T02:19:11.772Z,3.75
2023-01-17T02:20:11.782Z,3.75
2023-01-17T02:21:11.773Z,3.82
2023-01-17T02:22:11.799Z,3.83
2023-01-17T02:23:11.752Z,3.79
2023-01-17T02:24:11.750Z,3.82
2023-01-17T02:25:11.755Z,3.82
2023-01-17T02:26:11.751Z,3.90
2023-01-17T02:27:11.735Z,3.82
2023-01-17T02:28:11.742Z,3.68
2023-01-17T02:29:11.721Z,3.80
2023-01-17T02:30:12.744Z,3.82
2023-01-17T02:31:11.707Z,3.86
2023-01-17T02:32:11.706Z,3.89
2023-01-17T02:33:11.696Z,3.90
2023-01-17T02:34:11.694Z,3.86
2023-01-17T02:35:11.679Z,3.90
2023-01-17T02:36:11.705Z,3.94
2023-01-17T02:37:11.667Z,3.97
2023-01-17T02:38:11.675Z,3.85
2023-01-17T02:39:11.655Z,3.94
2023-01-17T02:40:11.650Z,3.86
2023-01-17T02:41:11.653Z,3.96
2023-01-17T02:42:11.624Z,3.98
2023-01-17T02:43:11.666Z,3.89
2023-01-17T02:44:11.634Z,3.78
2023-01-17T02:45:11.608Z,3.65
2023-01-17T02:46:11.698Z,3.71
2023-01-17T02:47:11.599Z,3.79
2023-01-17T02:48:11.752Z,3.67
2023-01-17T02:49:11.606Z,3.68
2023-01-17T02:50:11.591Z,3.71
2023-01-17T02:51:11.581Z,3.71
2023-01-17T02:52:11.580Z,3.80
2023-01-17T02:53:11.564Z,3.70
2023-01-17T02:54:11.575Z,3.71
2023-01-17T02:55:11.552Z,3.67
2023-01-17T02:56:11.551Z,3.79
2023-01-17T02:57:11.533Z,3.75
2023-01-17T02:58:11.571Z,3.82
2023-01-17T02:59:11.536Z,3.88
2023-01-17T03:00:11.520Z,3.78
2023-01-17T03:01:11.557Z,3.76
2023-01-17T03:02:11.682Z,3.72
2023-01-17T03:03:11.495Z,3.83
2023-01-17T03:04:11.498Z,3.67
2023-01-17T03:05:11.490Z,3.82
2023-01-17T03:06:11.505Z,3.83
2023-01-17T03:07:11.470Z,3.85
2023-01-17T03:08:11.462Z,3.72
2023-01-17T03:09:11.454Z,3.67
2023-01-17T03:10:11.474Z,3.76
2023-01-17T03:11:11.444Z,3.67
2023-01-17T03:12:11.432Z,3.75
2023-01-17T03:13:11.430Z,3.72
2023-01-17T03:14:11.436Z,3.67
2023-01-17T03:15:11.425Z,3.70
2023-01-17T03:16:12.787Z,3.68
2023-01-17T03:17:12.413Z,3.67
2023-01-17T03:18:11.402Z,3.85
2023-01-17T03:19:11.396Z,3.76
2023-01-17T03:20:11.388Z,3.70
2023-01-17T03:21:11.408Z,3.64
2023-01-17T03:22:11.373Z,3.75
2023-01-17T03:23:11.368Z,3.76
2023-01-17T03:24:11.356Z,3.67
2023-01-17T03:25:11.358Z,3.64
2023-01-17T03:26:11.363Z,3.78
2023-01-17T03:27:11.350Z,3.79
2023-01-17T03:28:11.333Z,3.85
2023-01-17T03:29:11.322Z,3.83
2023-01-17T03:30:11.322Z,3.86
2023-01-17T03:31:11.350Z,3.88
2023-01-17T03:32:11.306Z,3.85
2023-01-17T03:33:11.302Z,3.78
2023-01-17T03:34:11.286Z,3.71
2023-01-17T03:35:11.281Z,3.71
2023-01-17T03:36:11.282Z,3.83
2023-01-17T03:37:11.286Z,3.85
2023-01-17T03:38:11.265Z,3.70
2023-01-17T03:39:11.272Z,3.75
2023-01-17T03:40:11.259Z,3.70
2023-01-17T03:41:11.252Z,3.72
2023-01-17T03:42:11.253Z,3.70
2023-01-17T03:43:11.236Z,3.62
2023-01-17T03:44:11.228Z,3.70
2023-01-17T03:45:11.233Z,3.62
2023-01-17T03:46:11.266Z,3.67
2023-01-17T03:47:11.205Z,3.65
2023-01-17T03:48:11.224Z,3.65
2023-01-17T03:49:11.207Z,3.64
2023-01-17T03:50:11.199Z,3.65
2023-01-17T03:51:11.180Z,3.64
2023-01-17T03:52:11.181Z,3.64
2023-01-17T03:53:12.179Z,3.65
2023-01-17T03:54:11.174Z,3.65
2023-01-17T03:55:11.170Z,3.64
2023-01-17T03:56:11.148Z,3.68
2023-01-17T03:57:11.147Z,3.58
2023-01-17T03:58:11.135Z,3.61
2023-01-17T03:59:13.143Z,3.64
2023-01-17T04:00:12.137Z,3.64
2023-01-17T04:01:11.250Z,3.62
2023-01-17T04:02:11.224Z,3.58
2023-01-17T04:03:11.107Z,3.61
2023-01-17T04:04:11.105Z,3.62
2023-01-17T04:05:11.098Z,3.64
2023-01-17T04:06:11.097Z,3.65
2023-01-17T04:07:11.091Z,3.60
2023-01-17T04:08:11.082Z,3.57
2023-01-17T04:09:11.060Z,3.61
2023-01-17T04:10:11.076Z,3.57
2023-01-17T04:11:11.080Z,3.58
2023-01-17T04:12:11.082Z,3.54
2023-01-17T04:13:11.073Z,3.54
2023-01-17T04:14:11.072Z,3.61
2023-01-17T04:15:11.021Z,3.54
2023-01-17T04:16:11.040Z,3.62
2023-01-17T04:17:11.028Z,3.53
2023-01-17T04:18:11.019Z,3.58
2023-01-17T04:19:11.027Z,3.46
2023-01-17T04:20:11.040Z,3.52
2023-01-17T04:21:10.982Z,3.60
2023-01-17T04:22:10.987Z,3.57
2023-01-17T04:23:10.968Z,3.58
2023-01-17T04:24:11.033Z,3.53
2023-01-17T04:25:10.968Z,3.54
2023-01-17T04:26:10.954Z,3.54
2023-01-17T04:27:10.960Z,3.53
2023-01-17T04:28:10.947Z,3.50
2023-01-17T04:29:10.934Z,3.52
2023-01-17T04:30:10.932Z,3.62
2023-01-17T04:31:11.995Z,3.44
2023-01-17T04:32:10.941Z,3.57
2023-01-17T04:33:10.904Z,3.67
2023-01-17T04:34:10.924Z,3.47
2023-01-17T04:35:10.887Z,3.52
2023-01-17T04:36:10.884Z,3.54
2023-01-17T04:37:10.887Z,3.47
2023-01-17T04:38:10.879Z,3.49
2023-01-17T04:39:11.881Z,3.50
2023-01-17T04:40:10.857Z,3.58
2023-01-17T04:41:10.876Z,3.52
2023-01-17T04:42:10.852Z,3.60
2023-01-17T04:43:10.838Z,3.53
2023-01-17T04:44:10.843Z,3.58
2023-01-17T04:45:10.842Z,3.49
2023-01-17T04:46:11.861Z,3.58
2023-01-17T04:47:10.820Z,3.44
2023-01-17T04:48:10.813Z,3.43
2023-01-17T04:49:10.822Z,3.47
2023-01-17T04:50:10.827Z,3.49
2023-01-17T04:51:10.802Z,3.47
2023-01-17T04:52:10.790Z,3.58
2023-01-17T04:53:10.774Z,3.42
2023-01-17T04:54:10.784Z,3.44
2023-01-17T04:55:10.776Z,3.54
2023-01-17T04:56:10.766Z,3.46
2023-01-17T04:57:10.755Z,3.61
2023-01-17T04:58:10.755Z,3.43
2023-01-17T04:59:10.747Z,3.43
2023-01-17T05:00:10.769Z,3.33
2023-01-17T05:01:10.828Z,3.44
2023-01-17T05:02:10.778Z,3.40
2023-01-17T05:03:10.792Z,3.53
2023-01-17T05:04:10.726Z,3.50
2023-01-17T05:05:10.707Z,3.40
2023-01-17T05:06:10.710Z,3.49
2023-01-17T05:07:10.693Z,3.46
2023-01-17T05:08:10.689Z,3.33
2023-01-17T05:09:10.692Z,3.40
2023-01-17T05:10:10.687Z,3.39
2023-01-17T05:11:10.669Z,3.28
2023-01-17T05:12:10.654Z,3.31
2023-01-17T05:13:10.648Z,3.30
2023-01-17T05:14:10.636Z,3.31
2023-01-17T05:15:10.621Z,3.25
2023-01-17T05:16:10.682Z,3.25
2023-01-17T05:17:10.625Z,3.25
2023-01-17T05:18:10.621Z,3.28
2023-01-17T05:19:10.619Z,3.28
2023-01-17T05:20:10.610Z,3.15
2023-01-17T05:21:10.599Z,3.42
2023-01-17T05:22:10.591Z,3.25
2023-01-17T05:23:10.614Z,3.36
2023-01-17T05:24:10.599Z,3.33
2023-01-17T05:25:10.581Z,3.33
2023-01-17T05:26:10.590Z,3.28
2023-01-17T05:27:10.558Z,3.31
2023-01-17T05:28:10.568Z,3.23
2023-01-17T05:29:10.661Z,3.03
2023-01-17T05:30:10.540Z,2.97
2023-01-17T05:31:10.608Z,2.95
2023-01-17T05:32:10.552Z,2.91
2023-01-17T05:33:10.537Z,2.85
2023-01-17T05:34:10.528Z,2.91
2023-01-17T05:35:10.502Z,2.79
2023-01-17T05:36:10.507Z,2.87
2023-01-17T05:37:10.496Z,2.97
2023-01-17T05:38:10.485Z,2.88
2023-01-17T05:39:10.511Z,2.95
2023-01-17T05:40:10.482Z,2.87
2023-01-17T05:41:10.461Z,2.89
2023-01-17T05:42:10.472Z,2.87
2023-01-17T05:43:10.461Z,2.88
2023-01-17T05:44:10.470Z,2.85
2023-01-17T05:45:10.485Z,2.87
2023-01-17T05:46:10.528Z,2.77
2023-01-17T05:47:10.445Z,2.77
2023-01-17T05:48:10.423Z,2.85
2023-01-17T05:49:10.436Z,2.89
2023-01-17T05:50:10.433Z,2.84
2023-01-17T05:51:10.417Z,2.88
2023-01-17T05:52:10.405Z,2.85
2023-01-17T05:53:10.393Z,2.89
2023-01-17T05:54:10.386Z,2.79
2023-01-17T05:55:10.387Z,2.91
2023-01-17T05:56:10.395Z,2.84
2023-01-17T05:57:10.376Z,2.84
2023-01-17T05:58:10.356Z,2.84
2023-01-17T05:59:12.072Z,2.85
2023-01-17T06:00:10.353Z,2.87
2023-01-17T06:01:10.418Z,2.92
2023-01-17T06:02:10.362Z,2.91
2023-01-17T06:03:10.355Z,2.85
2023-01-17T06:04:10.341Z,2.87
2023-01-17T06:05:10.323Z,2.91
2023-01-17T06:06:10.314Z,2.88
2023-01-17T06:07:10.361Z,2.87
2023-01-17T06:08:10.297Z,2.84
2023-01-17T06:09:10.285Z,2.85
2023-01-17T06:10:10.282Z,2.87
2023-01-17T06:11:10.277Z,2.84
2023-01-17T06:12:10.281Z,2.82
2023-01-17T06:13:10.265Z,2.85
2023-01-17T06:14:10.255Z,2.79
2023-01-17T06:15:10.249Z,2.91
2023-01-17T06:16:10.281Z,2.94
2023-01-17T06:17:10.246Z,2.81
2023-01-17T06:18:10.232Z,2.91
2023-01-17T06:19:10.218Z,2.84
2023-01-17T06:20:10.259Z,2.77
2023-01-17T06:21:10.203Z,2.74
2023-01-17T06:22:10.209Z,2.70
2023-01-17T06:23:10.189Z,2.69
2023-01-17T06:24:10.189Z,2.61
2023-01-17T06:25:10.210Z,2.69
2023-01-17T06:26:10.177Z,2.63
2023-01-17T06:27:10.168Z,2.56
2023-01-17T06:28:10.172Z,2.66
2023-01-17T06:29:10.149Z,2.58
2023-01-17T06:30:10.179Z,2.63
2023-01-17T06:31:10.173Z,2.63
2023-01-17T06:32:10.142Z,2.66
2023-01-17T06:33:10.132Z,2.63
2023-01-17T06:34:10.129Z,2.49
2023-01-17T06:35:10.118Z,2.64
2023-01-17T06:36:10.133Z,2.69
2023-01-17T06:37:10.114Z,2.64
2023-01-17T06:38:10.082Z,2.61
2023-01-17T06:39:10.089Z,2.66
2023-01-17T06:40:10.174Z,2.58
2023-01-17T06:41:10.101Z,2.58
2023-01-17T06:42:10.265Z,2.59
2023-01-17T06:43:10.058Z,2.63
2023-01-17T06:44:10.078Z,2.66
2023-01-17T06:45:10.053Z,2.69
2023-01-17T06:46:10.100Z,2.59
2023-01-17T06:47:10.072Z,2.59
2023-01-17T06:48:11.058Z,2.59
2023-01-17T06:49:10.019Z,2.53
2023-01-17T06:50:10.051Z,2.61
2023-01-17T06:51:10.017Z,2.53
2023-01-17T06:52:10.002Z,2.56
2023-01-17T06:53:10.040Z,2.55
2023-01-17T06:54:09.981Z,2.56
2023-01-17T06:55:09.991Z,2.61
2023-01-17T06:56:09.973Z,2.58
2023-01-17T06:57:09.963Z,2.59
2023-01-17T06:58:09.996Z,2.52
2023-01-17T06:59:09.959Z,2.64
2023-01-17T07:00:09.959Z,2.58
2023-01-17T07:01:09.970Z,2.56
2023-01-17T07:02:09.930Z,2.59
2023-01-17T07:03:09.961Z,2.52
2023-01-17T07:04:09.941Z,2.52
2023-01-17T07:05:09.923Z,2.69
2023-01-17T07:06:09.906Z,2.64
2023-01-17T07:07:09.909Z,2.66
2023-01-17T07:08:09.898Z,2.61
2023-01-17T07:09:09.890Z,2.59
2023-01-17T07:10:09.900Z,2.63
2023-01-17T07:11:09.882Z,2.69
2023-01-17T07:12:09.896Z,2.66
2023-01-17T07:13:09.879Z,2.67
2023-01-17T07:14:09.857Z,2.63
2023-01-17T07:15:09.881Z,2.66
2023-01-17T07:16:09.933Z,2.63
2023-01-17T07:17:09.842Z,2.67
2023-01-17T07:18:09.853Z,2.61
2023-01-17T07:19:09.830Z,2.63
2023-01-17T07:20:09.835Z,2.59
2023-01-17T07:21:09.907Z,2.63
2023-01-17T07:22:09.807Z,2.56
2023-01-17T07:23:09.796Z,2.66
2023-01-17T07:24:09.784Z,2.61
2023-01-17T07:25:10.805Z,2.71
2023-01-17T07:26:09.784Z,2.64
2023-01-17T07:27:09.768Z,2.66
2023-01-17T07:28:10.770Z,2.66
2023-01-17T07:29:09.853Z,2.71
2023-01-17T07:30:09.783Z,2.63
2023-01-17T07:31:09.880Z,2.66
2023-01-17T07:32:09.739Z,2.66
2023-01-17T07:33:09.743Z,2.56
2023-01-17T07:34:09.747Z,2.58
2023-01-17T07:35:09.718Z,2.55
2023-01-17T07:36:09.731Z,2.53
2023-01-17T07:37:09.703Z,2.49
2023-01-17T07:38:09.705Z,2.49
2023-01-17T07:39:09.709Z,2.46
2023-01-17T07:40:09.694Z,2.48
2023-01-17T07:41:11.075Z,2.51
2023-01-17T07:42:10.681Z,2.46
2023-01-17T07:43:09.669Z,2.38
2023-01-17T07:44:09.665Z,2.38
2023-01-17T07:45:09.661Z,2.38
2023-01-17T07:46:09.665Z,2.41
2023-01-17T07:47:09.667Z,2.44
2023-01-17T07:48:09.640Z,2.45
2023-01-17T07:49:09.630Z,2.35
2023-01-17T07:50:09.630Z,2.30
2023-01-17T07:51:09.628Z,2.37
2023-01-17T07:52:09.626Z,2.34
2023-01-17T07:53:09.596Z,2.31
2023-01-17T07:54:09.600Z,2.41
2023-01-17T07:55:09.605Z,2.44
2023-01-17T07:56:09.589Z,2.40
2023-01-17T07:57:09.593Z,2.38
2023-01-17T07:58:09.572Z,2.31
2023-01-17T07:59:09.563Z,2.35
2023-01-17T08:00:09.559Z,2.23
2023-01-17T08:01:09.680Z,2.30
2023-01-17T08:02:09.572Z,2.33
2023-01-17T08:03:09.538Z,2.28
2023-01-17T08:04:09.586Z,2.35
2023-01-17T08:05:09.524Z,2.28
2023-01-17T08:06:09.550Z,2.33
2023-01-17T08:07:09.525Z,2.40
2023-01-17T08:08:09.502Z,2.44
2023-01-17T08:09:09.502Z,2.51
2023-01-17T08:10:09.504Z,2.55
2023-01-17T08:11:09.488Z,2.55
2023-01-17T08:12:09.492Z,2.59
2023-01-17T08:13:09.496Z,2.64
2023-01-17T08:14:09.469Z,2.58
2023-01-17T08:15:09.461Z,2.55
2023-01-17T08:16:09.466Z,2.59
2023-01-17T08:17:09.450Z,2.63
2023-01-17T08:18:09.437Z,2.58
2023-01-17T08:19:09.435Z,2.71
2023-01-17T08:20:09.429Z,3.15
2023-01-17T08:21:09.421Z,3.33
2023-01-17T08:22:09.424Z,3.24
2023-01-17T08:23:09.422Z,3.20
2023-01-17T08:24:09.413Z,3.31
2023-01-17T08:25:09.402Z,3.21
2023-01-17T08:26:09.383Z,3.20
2023-01-17T08:27:09.381Z,3.06
2023-01-17T08:28:09.382Z,2.97
2023-01-17T08:29:09.423Z,2.85
2023-01-17T08:30:09.365Z,2.98
2023-01-17T08:31:09.372Z,2.81
2023-01-17T08:32:09.348Z,2.74
2023-01-17T08:33:10.343Z,2.67
2023-01-17T08:34:09.404Z,2.61
2023-01-17T08:35:09.352Z,2.63
2023-01-17T08:36:09.312Z,2.59
2023-01-17T08:37:09.328Z,2.58
2023-01-17T08:38:09.316Z,2.58
2023-01-17T08:39:09.303Z,2.58
2023-01-17T08:40:09.319Z,2.64
2023-01-17T08:41:09.294Z,2.44
2023-01-17T08:42:09.281Z,2.41
2023-01-17T08:43:09.272Z,2.51
2023-01-17T08:44:09.274Z,2.48
2023-01-17T08:45:09.289Z,2.46
2023-01-17T08:46:09.341Z,2.48
2023-01-17T08:47:09.262Z,2.55
2023-01-17T08:48:09.241Z,2.44
2023-01-17T08:49:09.231Z,2.48
2023-01-17T08:50:09.247Z,2.46
2023-01-17T08:51:09.244Z,2.46
2023-01-17T08:52:09.231Z,2.56
2023-01-17T08:53:09.214Z,2.52
2023-01-17T08:54:09.207Z,2.55
2023-01-17T08:55:09.223Z,2.58
2023-01-17T08:56:09.198Z,2.53
2023-01-17T08:57:09.202Z,2.63
2023-01-17T08:58:09.186Z,2.53
2023-01-17T08:59:09.173Z,2.48
2023-01-17T09:00:09.187Z,2.61
2023-01-17T09:01:09.300Z,2.58
2023-01-17T09:02:09.342Z,2.63
2023-01-17T09:03:09.149Z,2.53
2023-01-17T09:04:09.249Z,2.49
2023-01-17T09:05:09.143Z,2.58
2023-01-17T09:06:09.151Z,2.53
2023-01-17T09:07:09.130Z,2.52
2023-01-17T09:08:09.129Z,2.58
2023-01-17T09:09:09.106Z,2.64
2023-01-17T09:10:09.101Z,2.59
2023-01-17T09:11:09.104Z,2.59
2023-01-17T09:12:10.090Z,2.66
2023-01-17T09:13:09.091Z,2.67
2023-01-17T09:14:09.081Z,2.71
2023-01-17T09:15:09.057Z,2.53
2023-01-17T09:16:09.108Z,2.53
2023-01-17T09:17:09.125Z,2.49
2023-01-17T09:18:09.053Z,2.44
2023-01-17T09:19:09.049Z,2.34
2023-01-17T09:20:09.039Z,2.40
2023-01-17T09:21:09.034Z,2.40
2023-01-17T09:22:09.055Z,2.40
2023-01-17T09:23:09.837Z,2.45
2023-01-17T09:24:09.025Z,2.34
2023-01-17T09:25:09.021Z,2.33
2023-01-17T09:26:09.000Z,2.19
2023-01-17T09:27:08.993Z,2.20
2023-01-17T09:28:08.993Z,2.33
2023-01-17T09:29:09.014Z,2.30
2023-01-17T09:30:08.965Z,2.37
2023-01-17T09:31:09.006Z,2.37
2023-01-17T09:32:08.972Z,2.48
2023-01-17T09:33:08.953Z,2.45
2023-01-17T09:34:08.949Z,2.48
2023-01-17T09:35:08.954Z,2.53
2023-01-17T09:36:08.939Z,2.53
2023-01-17T09:37:08.921Z,2.59
2023-01-17T09:38:08.917Z,2.66
2023-01-17T09:39:08.917Z,2.64
2023-01-17T09:40:08.929Z,2.73
2023-01-17T09:41:08.909Z,2.87
2023-01-17T09:42:08.899Z,2.85
2023-01-17T09:43:08.881Z,2.97
2023-01-17T09:44:08.878Z,3.00
2023-01-17T09:45:08.879Z,3.18
2023-01-17T09:46:08.924Z,3.25
2023-01-17T09:47:08.891Z,3.28
2023-01-17T09:48:08.860Z,3.33
2023-01-17T09:49:08.848Z,3.39
2023-01-17T09:50:08.852Z,3.43
2023-01-17T09:51:08.850Z,3.46
2023-01-17T09:52:08.833Z,3.72
2023-01-17T09:53:08.837Z,4.29
2023-01-17T09:54:08.825Z,4.88
2023-01-17T09:55:08.814Z,5.48
2023-01-17T09:56:08.813Z,6.40
2023-01-17T09:57:08.801Z,6.83
2023-01-17T09:58:08.801Z,7.23
2023-01-17T09:59:08.786Z,7.56
2023-01-17T10:00:08.796Z,7.20
2023-01-17T10:01:08.905Z,6.65
2023-01-17T10:02:08.997Z,6.09
2023-01-17T10:03:08.847Z,5.68
2023-01-17T10:04:08.829Z,5.66
2023-01-17T10:05:08.843Z,5.46
2023-01-17T10:06:08.752Z,6.35
2023-01-17T10:07:08.729Z,8.15
2023-01-17T10:08:08.748Z,9.52
2023-01-17T10:09:08.783Z,10.62
2023-01-17T10:10:08.771Z,11.96
2023-01-17T10:11:08.728Z,12.79
2023-01-17T10:12:08.700Z,13.51
2023-01-17T10:13:08.709Z,14.67
2023-01-17T10:14:08.688Z,15.49
2023-01-17T10:15:08.709Z,16.07
2023-01-17T10:16:08.671Z,16.34
2023-01-17T10:17:08.652Z,15.64
2023-01-17T10:18:10.145Z,14.57
2023-01-17T10:19:08.678Z,13.71
2023-01-17T10:20:08.648Z,12.56
2023-01-17T10:21:08.648Z,11.52
2023-01-17T10:22:08.630Z,10.70
2023-01-17T10:23:08.657Z,10.51
2023-01-17T10:24:08.721Z,10.47
2023-01-17T10:25:08.613Z,9.99
2023-01-17T10:26:08.597Z,9.20
2023-01-17T10:27:08.624Z,8.58
2023-01-17T10:28:08.603Z,7.99
2023-01-17T10:29:08.653Z,7.50
2023-01-17T10:30:08.601Z,6.89
2023-01-17T10:31:08.600Z,6.58
2023-01-17T10:32:08.590Z,6.33
2023-01-17T10:33:08.584Z,6.28
2023-01-17T10:34:08.554Z,6.47
2023-01-17T10:35:08.581Z,6.48
2023-01-17T10:36:08.551Z,6.35
2023-01-17T10:37:08.549Z,6.32
2023-01-17T10:38:08.564Z,6.01
2023-01-17T10:39:08.547Z,6.03
2023-01-17T10:40:08.554Z,5.89
2023-01-17T10:41:08.517Z,5.86
2023-01-17T10:42:08.504Z,5.78
2023-01-17T10:43:08.500Z,5.67
2023-01-17T10:44:08.472Z,5.60
2023-01-17T10:45:08.488Z,5.48
2023-01-17T10:46:08.577Z,5.25
2023-01-17T10:47:08.484Z,5.27
2023-01-17T10:48:08.454Z,5.16
2023-01-17T10:49:08.444Z,5.22
2023-01-17T10:50:08.438Z,5.13
2023-01-17T10:51:08.453Z,5.01
2023-01-17T10:52:08.464Z,5.09
2023-01-17T10:53:08.403Z,5.20
2023-01-17T10:54:08.426Z,5.45
2023-01-17T10:55:08.418Z,5.73
2023-01-17T10:56:09.418Z,6.03
2023-01-17T10:57:08.406Z,7.13
2023-01-17T10:58:08.377Z,8.62
2023-01-17T10:59:08.395Z,9.78
2023-01-17T11:00:08.392Z,10.92
2023-01-17T11:01:08.479Z,11.83
2023-01-17T11:02:08.419Z,12.33
2023-01-17T11:03:08.432Z,12.66
2023-01-17T11:04:08.356Z,13.17
2023-01-17T11:05:08.369Z,13.46
2023-01-17T11:06:08.352Z,13.52
2023-01-17T11:07:08.360Z,14.01
2023-01-17T11:08:08.324Z,14.14
2023-01-17T11:09:08.309Z,14.47
2023-01-17T11:10:08.309Z,14.71
2023-01-17T11:11:08.297Z,14.62
2023-01-17T11:12:08.297Z,14.91
2023-01-17T11:13:08.301Z,15.46
2023-01-17T11:14:08.286Z,15.17
2023-01-17T11:15:08.288Z,15.05
2023-01-17T11:16:08.360Z,14.91
2023-01-17T11:17:08.275Z,15.09
2023-01-17T11:18:08.274Z,15.19
2023-01-17T11:19:08.240Z,15.60
2023-01-17T11:20:08.269Z,16.89
2023-01-17T11:21:08.228Z,17.94
2023-01-17T11:22:08.224Z,18.72
2023-01-17T11:23:08.230Z,19.66
2023-01-17T11:24:08.227Z,20.05
2023-01-17T11:25:08.208Z,20.31
2023-01-17T11:26:09.200Z,20.06
2023-01-17T11:27:08.197Z,19.28
2023-01-17T11:28:08.197Z,18.86
2023-01-17T11:29:08.264Z,17.87
2023-01-17T11:30:08.188Z,16.45
2023-01-17T11:31:08.254Z,15.48
2023-01-17T11:32:08.152Z,14.68
2023-01-17T11:33:08.151Z,14.90
2023-01-17T11:34:08.160Z,14.68
2023-01-17T11:35:08.243Z,13.95
2023-01-17T11:36:08.144Z,12.45
2023-01-17T11:37:08.142Z,11.83
2023-01-17T11:38:08.138Z,11.52
2023-01-17T11:39:08.112Z,10.95
2023-01-17T11:40:08.109Z,11.41
2023-01-17T11:41:08.134Z,13.12
2023-01-17T11:42:08.096Z,14.61
2023-01-17T11:43:08.112Z,15.64
2023-01-17T11:44:08.083Z,16.30
2023-01-17T11:45:08.086Z,16.75
2023-01-17T11:46:08.122Z,17.08
2023-01-17T11:47:08.102Z,16.90
2023-01-17T11:48:08.075Z,16.80
2023-01-17T11:49:08.076Z,16.71
2023-01-17T11:50:08.042Z,16.53
2023-01-17T11:51:08.045Z,15.79
2023-01-17T11:52:08.047Z,15.84
2023-01-17T11:53:08.028Z,15.59
2023-01-17T11:54:08.012Z,15.48
2023-01-17T11:55:08.012Z,15.66
2023-01-17T11:56:08.042Z,15.74
2023-01-17T11:57:08.017Z,15.78
2023-01-17T11:58:07.983Z,15.27
2023-01-17T11:59:07.995Z,15.13
2023-01-17T12:00:07.981Z,15.21
2023-01-17T12:01:08.050Z,15.03
2023-01-17T12:02:07.982Z,15.24
2023-01-17T12:03:07.959Z,15.48
2023-01-17T12:04:08.001Z,15.59
2023-01-17T12:05:07.981Z,15.92
2023-01-17T12:06:07.944Z,16.14
2023-01-17T12:07:07.960Z,15.89
2023-01-17T12:08:07.946Z,15.49
2023-01-17T12:09:08.020Z,15.27
2023-01-17T12:10:07.928Z,15.93
2023-01-17T12:11:07.912Z,16.11
2023-01-17T12:12:07.925Z,16.01
2023-01-17T12:13:07.903Z,16.07
2023-01-17T12:14:07.926Z,16.09
2023-01-17T12:15:07.895Z,16.11
2023-01-17T12:16:08.058Z,15.64
2023-01-17T12:17:07.900Z,15.09
2023-01-17T12:18:07.872Z,14.88
2023-01-17T12:19:07.870Z,14.78
2023-01-17T12:20:07.852Z,14.56
2023-01-17T12:21:07.852Z,14.47
2023-01-17T12:22:07.874Z,14.60
2023-01-17T12:23:07.859Z,14.91
2023-01-17T12:24:07.845Z,15.19
2023-01-17T12:25:07.819Z,15.42
2023-01-17T12:26:07.815Z,15.57
2023-01-17T12:27:08.978Z,15.67
2023-01-17T12:28:07.808Z,15.61
2023-01-17T12:29:07.804Z,15.48
2023-01-17T12:30:07.800Z,15.43
2023-01-17T12:31:07.789Z,14.87
2023-01-17T12:32:07.784Z,14.44
2023-01-17T12:33:07.791Z,14.34
2023-01-17T12:34:08.152Z,14.10
2023-01-17T12:35:07.771Z,13.74
2023-01-17T12:36:07.783Z,13.63
2023-01-17T12:37:07.757Z,13.76
2023-01-17T12:38:07.746Z,13.74
2023-01-17T12:39:07.770Z,13.91
2023-01-17T12:40:07.731Z,13.09
2023-01-17T12:41:07.730Z,11.93
2023-01-17T12:42:07.716Z,10.94
2023-01-17T12:43:07.716Z,10.17
2023-01-17T12:44:07.736Z,9.58
2023-01-17T12:45:07.687Z,9.15
2023-01-17T12:46:07.686Z,8.79
2023-01-17T12:47:07.675Z,8.58
2023-01-17T12:48:07.672Z,8.28
2023-01-17T12:49:07.688Z,8.11
2023-01-17T12:50:07.672Z,7.82
2023-01-17T12:51:07.687Z,7.67
2023-01-17T12:52:07.651Z,7.37
2023-01-17T12:53:07.645Z,7.34
2023-01-17T12:54:07.632Z,7.24
2023-01-17T12:55:07.636Z,7.15
2023-01-17T12:56:07.649Z,7.22
2023-01-17T12:57:07.615Z,7.24
2023-01-17T12:58:07.615Z,7.75
2023-01-17T12:59:07.621Z,7.87
2023-01-17T13:00:07.602Z,7.79
2023-01-17T13:01:07.688Z,7.75
2023-01-17T13:02:07.675Z,7.60
2023-01-17T13:03:07.627Z,7.82
2023-01-17T13:04:07.569Z,7.75
2023-01-17T13:05:07.565Z,7.59
2023-01-17T13:06:07.555Z,7.67
2023-01-17T13:07:07.599Z,7.32
2023-01-17T13:08:07.548Z,7.27
2023-01-17T13:09:07.553Z,7.27
2023-01-17T13:10:07.540Z,7.24
2023-01-17T13:11:07.572Z,7.94
2023-01-17T13:12:07.512Z,9.04
2023-01-17T13:13:07.517Z,10.32
2023-01-17T13:14:07.500Z,11.17